createdAt,value
2017-10-08T00:01:57.432Z,12.30
2017-10-08T00:07:00.497Z,12.40
2017-10-08T00:12:03.773Z,12.40
2017-10-08T00:14:32.745Z,12.40
2017-10-08T00:19:35.921Z,12.50
2017-10-08T00:22:05.641Z,12.50
2017-10-08T00:32:18.784Z,12.30
2017-10-08T00:34:47.780Z,12.30
2017-10-08T00:39:51.881Z,12.40
2017-10-08T00:42:20.831Z,12.30
2017-10-08T00:44:49.782Z,12.40
2017-10-08T00:47:18.796Z,12.30
2017-10-08T00:49:48.540Z,12.30
2017-10-08T00:57:27.584Z,12.30
2017-10-08T01:02:31.130Z,12.30
2017-10-08T01:05:00.179Z,12.30
2017-10-08T01:10:03.774Z,12.30
2017-10-08T01:15:07.739Z,12.40
2017-10-08T01:17:36.717Z,12.40
2017-10-08T01:20:06.077Z,12.30
2017-10-08T01:22:35.445Z,12.30
2017-10-08T01:25:04.389Z,12.20
2017-10-08T01:27:33.768Z,12.20
2017-10-08T01:30:03.515Z,12.10
2017-10-08T01:32:32.468Z,12.10
2017-10-08T01:42:44.149Z,12.10
2017-10-08T01:47:48.452Z,12.10
2017-10-08T01:50:18.265Z,12.20
2017-10-08T02:00:29.796Z,12.30
2017-10-08T02:08:08.036Z,12.30
2017-10-08T02:15:46.910Z,12.50
2017-10-08T02:18:16.676Z,12.40
2017-10-08T02:20:45.647Z,12.40
2017-10-08T02:23:14.612Z,12.40
2017-10-08T02:30:52.613Z,12.40
2017-10-08T02:35:56.573Z,12.30
2017-10-08T02:40:59.800Z,12.20
2017-10-08T02:43:29.153Z,12.30
2017-10-08T02:45:58.955Z,12.30
2017-10-08T02:51:02.971Z,12.30
2017-10-08T02:56:06.964Z,12.40
2017-10-08T02:58:36.735Z,12.30
2017-10-08T03:01:06.466Z,12.30
2017-10-08T03:16:28.744Z,12.30
2017-10-08T03:24:08.560Z,12.50
2017-10-08T03:31:45.858Z,12.50
2017-10-08T03:34:15.569Z,12.40
2017-10-08T03:39:19.555Z,12.30
2017-10-08T03:41:48.552Z,12.20
2017-10-08T03:44:17.545Z,12.20
2017-10-08T03:49:20.915Z,12.30
2017-10-08T03:54:24.964Z,12.30
2017-10-08T03:56:53.918Z,12.30
2017-10-08T03:59:22.868Z,12.30
2017-10-08T04:04:26.376Z,12.20
2017-10-08T04:06:55.349Z,12.20
2017-10-08T04:11:58.933Z,12.20
2017-10-08T04:19:37.020Z,12.20
2017-10-08T04:24:40.310Z,12.30
2017-10-08T04:27:09.272Z,12.30
2017-10-08T04:32:12.484Z,12.40
2017-10-08T04:34:41.438Z,12.40
2017-10-08T04:50:03.914Z,12.40
2017-10-08T04:55:08.717Z,12.30
2017-10-08T04:57:37.688Z,12.30
2017-10-08T05:02:41.665Z,12.30
2017-10-08T05:05:10.633Z,12.30
2017-10-08T05:10:13.716Z,12.30
2017-10-08T05:15:17.783Z,12.30
2017-10-08T05:17:46.740Z,12.30
2017-10-08T05:22:49.939Z,12.30
2017-10-08T05:30:27.692Z,12.30
2017-10-08T05:35:31.508Z,12.40
2017-10-08T05:38:00.901Z,12.30
2017-10-08T05:40:29.878Z,12.30
2017-10-08T05:45:34.143Z,12.20
2017-10-08T05:48:04.368Z,12.10
2017-10-08T05:53:08.689Z,12.00
2017-10-08T06:00:47.164Z,11.70
2017-10-08T06:16:12.159Z,11.70
2017-10-08T06:18:42.017Z,11.70
2017-10-08T06:26:22.321Z,11.50
2017-10-08T06:28:51.563Z,11.30
2017-10-08T06:39:06.824Z,11.30
2017-10-08T06:44:10.444Z,11.50
2017-10-08T06:46:39.431Z,11.60
2017-10-08T06:51:42.537Z,11.70
2017-10-08T06:54:12.925Z,11.90
2017-10-08T06:56:42.793Z,11.90
2017-10-08T06:59:11.738Z,11.90
2017-10-08T07:01:41.141Z,12.00
2017-10-08T07:06:46.199Z,12.00
2017-10-08T07:19:32.588Z,12.30
2017-10-08T07:22:01.556Z,12.30
2017-10-08T07:24:31.168Z,12.50
2017-10-08T07:27:01.145Z,12.50
2017-10-08T07:29:31.137Z,12.50
2017-10-08T07:32:00.479Z,12.40
2017-10-08T07:34:31.276Z,12.40
2017-10-08T07:37:00.282Z,12.50
2017-10-08T07:39:29.304Z,12.60
2017-10-08T07:47:07.684Z,12.50
2017-10-08T07:49:37.252Z,12.50
2017-10-08T07:57:14.932Z,12.20
2017-10-08T07:59:44.685Z,12.40
2017-10-08T08:02:14.836Z,12.50
2017-10-08T08:12:28.072Z,13.00
2017-10-08T08:14:57.453Z,13.00
2017-10-08T08:17:26.430Z,13.20
2017-10-08T08:19:56.436Z,13.40
2017-10-08T08:24:59.957Z,13.40
2017-10-08T08:27:28.896Z,13.50
2017-10-08T08:29:58.364Z,13.60
2017-10-08T08:32:27.348Z,13.60
2017-10-08T08:34:56.311Z,13.50
2017-10-08T08:37:27.720Z,13.30
2017-10-08T08:42:32.313Z,13.30
2017-10-08T08:45:01.419Z,13.30
2017-10-08T08:47:30.401Z,13.40
2017-10-08T08:52:34.110Z,13.30
2017-10-08T08:55:03.473Z,13.50
2017-10-08T09:00:06.560Z,13.80
2017-10-08T09:02:36.379Z,13.90
2017-10-08T09:05:06.103Z,14.00
2017-10-08T09:07:35.069Z,14.30
2017-10-08T09:10:09.499Z,14.00
2017-10-08T09:20:23.619Z,14.30
2017-10-08T09:25:26.883Z,14.40
2017-10-08T09:27:57.526Z,14.30
2017-10-08T09:33:02.445Z,14.50
2017-10-08T09:35:31.390Z,14.50
2017-10-08T09:38:00.326Z,14.50
2017-10-08T09:43:03.997Z,14.50
2017-10-08T09:45:32.944Z,14.60
2017-10-08T09:48:01.952Z,14.80
2017-10-08T09:50:32.504Z,15.00
2017-10-08T09:58:12.450Z,14.70
2017-10-08T10:00:41.430Z,14.70
2017-10-08T10:08:20.929Z,14.90
2017-10-08T10:26:21.691Z,15.60
2017-10-08T10:34:00.088Z,15.10
2017-10-08T10:36:29.899Z,14.70
2017-10-08T10:41:33.042Z,14.30
2017-10-08T10:44:03.641Z,14.10
2017-10-08T10:51:43.224Z,14.30
2017-10-08T10:56:46.725Z,14.50
2017-10-08T10:59:16.484Z,14.70
2017-10-08T11:06:54.532Z,15.90
2017-10-08T11:19:40.689Z,16.10
2017-10-08T11:27:19.095Z,16.30
2017-10-08T11:29:48.503Z,16.40
2017-10-08T11:32:17.802Z,16.50
2017-10-08T11:34:47.593Z,16.70
2017-10-08T11:37:16.574Z,17.00
2017-10-08T11:39:45.627Z,17.40
2017-10-08T11:42:14.615Z,18.20
2017-10-08T11:44:44.357Z,18.80
2017-10-08T11:47:13.310Z,19.60
2017-10-08T11:49:42.257Z,19.60
2017-10-08T11:52:11.960Z,18.90
2017-10-08T11:54:41.721Z,18.10
2017-10-08T11:57:10.676Z,17.20
2017-10-08T11:59:39.606Z,16.30
2017-10-08T12:02:08.581Z,16.00
2017-10-08T12:04:37.500Z,15.80
2017-10-08T12:07:06.480Z,16.20
2017-10-08T12:09:35.415Z,16.80
2017-10-08T12:12:05.141Z,17.00
2017-10-08T12:14:34.465Z,17.50
2017-10-08T12:17:03.510Z,18.50
2017-10-08T12:19:32.435Z,19.10
2017-10-08T12:22:01.375Z,19.80
2017-10-08T12:24:30.344Z,20.60
2017-10-08T12:26:59.301Z,20.50
2017-10-08T12:29:28.256Z,20.70
2017-10-08T12:31:57.217Z,21.10
2017-10-08T12:34:26.146Z,21.10
2017-10-08T12:36:55.884Z,21.00
2017-10-08T12:39:24.826Z,21.20
2017-10-08T12:41:53.754Z,21.90
2017-10-08T12:44:22.718Z,22.50
2017-10-08T12:46:51.658Z,23.60
2017-10-08T12:49:21.401Z,23.60
2017-10-08T12:51:50.350Z,22.40
2017-10-08T12:54:19.308Z,23.00
2017-10-08T12:56:49.007Z,23.30
2017-10-08T12:59:17.966Z,22.40
2017-10-08T13:01:46.927Z,22.40
2017-10-08T13:04:16.658Z,21.50
2017-10-08T13:06:45.597Z,21.50
2017-10-08T13:09:15.337Z,21.80
2017-10-08T13:11:44.674Z,21.60
2017-10-08T13:14:13.639Z,20.80
2017-10-08T13:16:42.601Z,20.80
2017-10-08T13:19:12.434Z,20.70
2017-10-08T13:21:41.399Z,20.70
2017-10-08T13:24:11.112Z,19.40
2017-10-08T13:26:40.838Z,20.10
2017-10-08T13:29:09.808Z,21.60
2017-10-08T13:31:39.522Z,21.70
2017-10-08T13:34:09.239Z,21.70
2017-10-08T13:36:39.001Z,22.20
2017-10-08T13:39:07.942Z,22.20
2017-10-08T13:41:36.892Z,23.50
2017-10-08T13:44:06.635Z,23.20
2017-10-08T13:46:36.357Z,22.50
2017-10-08T13:49:05.717Z,21.30
2017-10-08T13:51:34.663Z,19.70
2017-10-08T13:54:04.399Z,18.40
2017-10-08T13:56:33.384Z,17.60
2017-10-08T13:59:03.100Z,17.60
2017-10-08T14:01:32.457Z,18.20
2017-10-08T14:04:01.773Z,19.50
2017-10-08T14:06:30.726Z,19.20
2017-10-08T14:09:00.492Z,18.50
2017-10-08T14:11:29.457Z,17.60
2017-10-08T14:13:58.459Z,17.70
2017-10-08T14:16:27.414Z,17.70
2017-10-08T14:18:57.142Z,17.20
2017-10-08T14:21:26.474Z,16.60
2017-10-08T14:23:55.841Z,16.90
2017-10-08T14:26:24.775Z,17.20
2017-10-08T14:28:54.526Z,17.10
2017-10-08T14:31:23.481Z,17.00
2017-10-08T14:33:53.200Z,16.40
2017-10-08T14:36:22.542Z,16.30
2017-10-08T14:38:51.495Z,16.00
2017-10-08T14:41:20.504Z,15.90
2017-10-08T14:43:50.221Z,15.90
2017-10-08T14:46:20.741Z,15.80
2017-10-08T14:48:49.658Z,15.80
2017-10-08T14:51:19.308Z,16.20
2017-10-08T14:53:49.735Z,16.80
2017-10-08T14:56:19.475Z,16.80
2017-10-08T14:58:49.177Z,16.40
2017-10-08T15:01:18.558Z,16.00
2017-10-08T15:03:48.693Z,15.70
2017-10-08T15:06:17.763Z,15.40
2017-10-08T15:08:50.158Z,15.30
2017-10-08T15:11:19.173Z,15.00
2017-10-08T15:13:50.268Z,14.80
2017-10-08T15:16:19.639Z,14.70
2017-10-08T15:18:49.356Z,14.60
2017-10-08T15:21:18.736Z,14.60
2017-10-08T15:23:47.703Z,14.50
2017-10-08T15:26:17.429Z,14.70
2017-10-08T15:28:46.799Z,14.60
2017-10-08T15:31:17.280Z,14.60
2017-10-08T15:33:47.786Z,14.70
2017-10-08T15:36:18.156Z,14.60
2017-10-08T15:38:47.169Z,14.60
2017-10-08T15:41:16.611Z,14.60
2017-10-08T15:43:47.901Z,14.50
2017-10-08T15:46:17.686Z,14.50
2017-10-08T15:48:47.190Z,14.40
2017-10-08T15:51:16.857Z,14.30
2017-10-08T15:53:46.249Z,14.20
2017-10-08T15:56:15.431Z,14.20
2017-10-08T15:58:44.766Z,14.20
2017-10-08T16:01:14.488Z,14.10
2017-10-08T16:03:43.413Z,14.10
2017-10-08T16:06:12.360Z,14.10
2017-10-08T16:08:41.699Z,14.00
2017-10-08T16:11:10.656Z,13.90
2017-10-08T16:13:39.607Z,14.00
2017-10-08T16:16:08.558Z,14.00
2017-10-08T16:18:37.514Z,14.10
2017-10-08T16:21:06.920Z,14.10
2017-10-08T16:23:36.654Z,14.00
2017-10-08T16:26:05.578Z,13.90
2017-10-08T16:28:34.525Z,14.00
2017-10-08T16:31:03.470Z,14.00
2017-10-08T16:33:32.419Z,13.90
2017-10-08T16:36:01.365Z,13.90
2017-10-08T16:38:30.733Z,13.90
2017-10-08T16:40:59.809Z,13.90
2017-10-08T16:43:29.541Z,13.90
2017-10-08T16:45:58.473Z,13.90
2017-10-08T16:48:28.224Z,13.90
2017-10-08T16:50:57.579Z,13.70
2017-10-08T16:53:26.517Z,13.70
2017-10-08T16:55:55.474Z,13.60
2017-10-08T16:58:24.866Z,13.70
2017-10-08T17:00:54.562Z,13.60
2017-10-08T17:03:23.493Z,13.50
2017-10-08T17:05:52.570Z,13.40
2017-10-08T17:08:21.511Z,13.40
2017-10-08T17:10:50.470Z,13.50
2017-10-08T17:13:19.414Z,13.40
2017-10-08T17:15:48.363Z,13.30
2017-10-08T17:18:17.299Z,13.30
2017-10-08T17:20:46.359Z,13.30
2017-10-08T17:23:15.775Z,13.30
2017-10-08T17:25:45.103Z,13.40
2017-10-08T17:28:14.463Z,13.30
2017-10-08T17:30:43.397Z,13.40
2017-10-08T17:33:13.187Z,13.50
2017-10-08T17:35:42.126Z,13.40
2017-10-08T17:38:11.087Z,13.30
2017-10-08T17:40:40.031Z,13.20
2017-10-08T17:43:09.425Z,13.10
2017-10-08T17:45:38.358Z,13.10
2017-10-08T17:48:07.298Z,13.10
2017-10-08T17:50:37.036Z,13.00
2017-10-08T17:53:06.467Z,12.80
2017-10-08T17:55:35.804Z,12.70
2017-10-08T17:58:05.510Z,12.70
2017-10-08T18:00:34.473Z,12.50
2017-10-08T18:03:04.160Z,12.70
2017-10-08T18:05:33.177Z,12.60
2017-10-08T18:08:02.879Z,12.60
2017-10-08T18:10:32.633Z,12.60
2017-10-08T18:13:01.682Z,12.70
2017-10-08T18:15:31.476Z,12.60
2017-10-08T18:18:02.365Z,12.60
2017-10-08T18:20:31.328Z,12.70
2017-10-08T18:23:00.687Z,12.70
2017-10-08T18:25:29.642Z,12.80
2017-10-08T18:27:58.609Z,12.80
2017-10-08T18:30:28.431Z,12.70
2017-10-08T18:32:57.509Z,12.80
2017-10-08T18:35:26.433Z,12.90
2017-10-08T18:37:55.414Z,12.90
2017-10-08T18:40:24.354Z,12.90
2017-10-08T18:42:53.782Z,13.00
2017-10-08T18:45:22.698Z,13.00
2017-10-08T18:47:51.713Z,13.00
2017-10-08T18:50:21.169Z,13.00
2017-10-08T18:52:50.582Z,12.80
2017-10-08T18:55:20.319Z,12.70
2017-10-08T18:57:49.318Z,12.70
2017-10-08T19:00:18.278Z,12.70
2017-10-08T19:02:48.073Z,12.70
2017-10-08T19:05:17.425Z,12.80
2017-10-08T19:07:46.404Z,12.90
2017-10-08T19:10:16.125Z,12.90
2017-10-08T19:12:45.078Z,12.90
2017-10-08T19:15:14.468Z,12.90
2017-10-08T19:17:44.211Z,12.80
2017-10-08T19:20:14.320Z,12.70
2017-10-08T19:22:43.271Z,12.60
2017-10-08T19:25:12.635Z,12.60
2017-10-08T19:27:41.581Z,12.50
2017-10-08T19:30:11.310Z,12.50
2017-10-08T19:32:40.311Z,12.50
2017-10-08T19:35:09.636Z,12.50
2017-10-08T19:37:39.021Z,12.50
2017-10-08T19:40:07.972Z,12.50
2017-10-08T19:42:37.771Z,12.50
2017-10-08T19:45:06.717Z,12.50
2017-10-08T19:47:35.695Z,12.40
2017-10-08T19:50:04.676Z,12.40
2017-10-08T19:52:33.621Z,12.40
2017-10-08T19:55:03.363Z,12.50
2017-10-08T19:57:33.110Z,12.60
2017-10-08T20:00:02.465Z,12.50
2017-10-08T20:02:32.187Z,12.50
2017-10-08T20:05:01.267Z,12.40
2017-10-08T20:07:30.191Z,12.40
2017-10-08T20:09:59.913Z,12.40
2017-10-08T20:12:28.856Z,12.50
2017-10-08T20:14:58.631Z,12.50
2017-10-08T20:17:27.591Z,12.40
2017-10-08T20:19:56.538Z,12.40
2017-10-08T20:22:25.483Z,12.50
2017-10-08T20:24:54.530Z,12.50
2017-10-08T20:27:24.283Z,12.50
2017-10-08T20:29:53.651Z,12.30
2017-10-08T20:32:23.356Z,12.20
2017-10-08T20:34:53.082Z,12.30
2017-10-08T20:37:22.027Z,12.20
2017-10-08T20:39:50.999Z,12.20
2017-10-08T20:42:20.712Z,12.20
2017-10-08T20:44:49.687Z,12.10
2017-10-08T20:47:18.621Z,12.00
2017-10-08T20:49:47.979Z,12.10
2017-10-08T20:52:16.901Z,12.00
2017-10-08T20:54:45.863Z,12.00
2017-10-08T20:57:14.801Z,11.90
2017-10-08T20:59:44.580Z,11.80
2017-10-08T21:02:13.541Z,11.80
2017-10-08T21:04:42.461Z,11.70
2017-10-08T21:07:11.833Z,11.70
2017-10-08T21:09:40.895Z,11.50
2017-10-08T21:12:09.866Z,11.50
2017-10-08T21:14:39.608Z,11.40
2017-10-08T21:17:09.347Z,11.50
2017-10-08T21:19:38.277Z,11.40
2017-10-08T21:22:07.308Z,11.30
2017-10-08T21:24:37.002Z,11.30
2017-10-08T21:27:06.721Z,11.20
2017-10-08T21:29:35.707Z,11.20
2017-10-08T21:32:05.393Z,11.10
2017-10-08T21:34:35.859Z,11.10
2017-10-08T21:37:04.801Z,11.00
2017-10-08T21:39:33.747Z,11.00
2017-10-08T21:42:02.689Z,10.90
2017-10-08T21:44:31.651Z,10.80
2017-10-08T21:47:00.636Z,10.80
2017-10-08T21:49:29.578Z,10.70
2017-10-08T21:51:58.914Z,10.70
2017-10-08T21:54:28.376Z,10.70
2017-10-08T21:56:57.713Z,10.60
2017-10-08T21:59:26.695Z,10.60
2017-10-08T22:01:55.627Z,10.60
2017-10-08T22:04:24.549Z,10.50
2017-10-08T22:06:54.277Z,10.50
2017-10-08T22:09:24.452Z,10.50
2017-10-08T22:11:53.406Z,10.50
2017-10-08T22:14:22.810Z,10.40
2017-10-08T22:16:51.777Z,10.40
2017-10-08T22:19:21.478Z,10.30
2017-10-08T22:21:51.198Z,10.30
2017-10-08T22:24:20.528Z,10.10
2017-10-08T22:26:49.491Z,10.10
2017-10-08T22:29:18.437Z,10.00
2017-10-08T22:31:47.386Z,10.00
2017-10-08T22:34:16.327Z,10.00
2017-10-08T22:36:45.267Z,9.80
2017-10-08T22:39:14.291Z,9.80
2017-10-08T22:41:43.641Z,9.70
2017-10-08T22:44:12.614Z,9.70
2017-10-08T22:46:41.607Z,9.70
2017-10-08T22:49:10.567Z,9.60
2017-10-08T22:51:39.497Z,9.50
2017-10-08T22:54:09.241Z,9.50
2017-10-08T22:56:38.940Z,9.60
2017-10-08T22:59:07.891Z,9.50
2017-10-08T23:01:36.805Z,9.60
2017-10-08T23:04:06.648Z,9.60
2017-10-08T23:06:35.594Z,9.60
2017-10-08T23:09:05.315Z,9.50
2017-10-08T23:11:34.300Z,9.50
2017-10-08T23:14:03.619Z,9.50
2017-10-08T23:16:32.589Z,9.50
2017-10-08T23:19:01.527Z,9.50
2017-10-08T23:21:30.573Z,9.40
2017-10-08T23:23:59.897Z,9.50
2017-10-08T23:26:29.654Z,9.50
2017-10-08T23:28:58.574Z,9.50
2017-10-08T23:31:28.391Z,9.50
2017-10-08T23:33:57.296Z,9.50
2017-10-08T23:36:26.298Z,9.50
2017-10-08T23:38:55.248Z,9.50
2017-10-08T23:41:24.202Z,9.50
2017-10-08T23:43:53.123Z,9.40
2017-10-08T23:46:22.538Z,9.30
2017-10-08T23:48:51.903Z,9.20
2017-10-08T23:51:21.247Z,9.20
2017-10-08T23:53:50.187Z,9.20
2017-10-08T23:56:19.565Z,9.20
2017-10-08T23:58:48.891Z,9.20
